sensor_id;sensor_type;location;lat;lon;timestamp;temperature;humidity
18412;DHT22;27097;51.738;19.472;2023-07-13T00:01:44;24.60;70.00
18412;DHT22;27097;51.738;19.472;2023-07-13T00:04:13;24.70;69.80
18412;DHT22;27097;51.738;19.472;2023-07-13T00:06:42;24.70;69.10
18412;DHT22;27097;51.738;19.472;2023-07-13T00:09:10;24.60;69.10
18412;DHT22;27097;51.738;19.472;2023-07-13T00:11:38;24.60;69.30
18412;DHT22;27097;51.738;19.472;2023-07-13T00:14:05;24.60;69.60
18412;DHT22;27097;51.738;19.472;2023-07-13T00:16:33;24.60;69.50
18412;DHT22;27097;51.738;19.472;2023-07-13T00:19:00;24.50;69.80
18412;DHT22;27097;51.738;19.472;2023-07-13T00:21:27;24.50;70.10
18412;DHT22;27097;51.738;19.472;2023-07-13T00:23:56;24.40;71.10
18412;DHT22;27097;51.738;19.472;2023-07-13T00:26:23;24.30;70.60
18412;DHT22;27097;51.738;19.472;2023-07-13T00:28:50;24.30;71.50
18412;DHT22;27097;51.738;19.472;2023-07-13T00:31:17;24.30;72.20
18412;DHT22;27097;51.738;19.472;2023-07-13T00:33:44;24.30;72.60
18412;DHT22;27097;51.738;19.472;2023-07-13T00:36:11;24.30;72.90
18412;DHT22;27097;51.738;19.472;2023-07-13T00:38:38;24.30;72.10
18412;DHT22;27097;51.738;19.472;2023-07-13T00:41:06;24.40;71.90
18412;DHT22;27097;51.738;19.472;2023-07-13T00:43:33;24.40;71.90
18412;DHT22;27097;51.738;19.472;2023-07-13T00:46:19;24.40;71.50
18412;DHT22;27097;51.738;19.472;2023-07-13T00:48:48;24.40;70.90
18412;DHT22;27097;51.738;19.472;2023-07-13T00:51:18;24.40;71.20
18412;DHT22;27097;51.738;19.472;2023-07-13T00:53:46;24.40;71.50
18412;DHT22;27097;51.738;19.472;2023-07-13T00:56:14;24.40;71.20
18412;DHT22;27097;51.738;19.472;2023-07-13T00:58:42;24.40;71.40
18412;DHT22;27097;51.738;19.472;2023-07-13T01:01:09;24.30;71.40
18412;DHT22;27097;51.738;19.472;2023-07-13T01:03:38;24.30;71.80
18412;DHT22;27097;51.738;19.472;2023-07-13T01:06:06;24.20;72.10
18412;DHT22;27097;51.738;19.472;2023-07-13T01:08:33;24.20;72.10
18412;DHT22;27097;51.738;19.472;2023-07-13T01:11:00;24.20;72.10
18412;DHT22;27097;51.738;19.472;2023-07-13T01:13:28;24.10;71.70
18412;DHT22;27097;51.738;19.472;2023-07-13T01:15:58;24.10;71.70
18412;DHT22;27097;51.738;19.472;2023-07-13T01:18:28;24.10;71.80
18412;DHT22;27097;51.738;19.472;2023-07-13T01:20:59;24.00;72.40
18412;DHT22;27097;51.738;19.472;2023-07-13T01:23:26;24.10;72.70
18412;DHT22;27097;51.738;19.472;2023-07-13T01:25:54;24.10;72.50
18412;DHT22;27097;51.738;19.472;2023-07-13T01:28:22;24.10;71.70
18412;DHT22;27097;51.738;19.472;2023-07-13T01:30:53;24.10;71.80
18412;DHT22;27097;51.738;19.472;2023-07-13T01:33:20;24.00;71.90
18412;DHT22;27097;51.738;19.472;2023-07-13T01:35:47;24.10;72.50
18412;DHT22;27097;51.738;19.472;2023-07-13T01:38:17;24.00;72.30
18412;DHT22;27097;51.738;19.472;2023-07-13T01:40:44;24.10;72.20
18412;DHT22;27097;51.738;19.472;2023-07-13T01:43:11;24.10;72.30
18412;DHT22;27097;51.738;19.472;2023-07-13T01:45:38;24.10;72.20
18412;DHT22;27097;51.738;19.472;2023-07-13T01:48:05;24.10;72.40
18412;DHT22;27097;51.738;19.472;2023-07-13T01:50:33;24.10;72.10
18412;DHT22;27097;51.738;19.472;2023-07-13T01:53:00;24.10;72.00
18412;DHT22;27097;51.738;19.472;2023-07-13T01:55:28;24.10;71.90
18412;DHT22;27097;51.738;19.472;2023-07-13T01:57:55;24.20;71.80
18412;DHT22;27097;51.738;19.472;2023-07-13T02:00:23;24.20;71.70
18412;DHT22;27097;51.738;19.472;2023-07-13T02:02:50;24.20;71.50
18412;DHT22;27097;51.738;19.472;2023-07-13T02:05:17;24.20;71.30
18412;DHT22;27097;51.738;19.472;2023-07-13T02:07:44;24.20;70.90
18412;DHT22;27097;51.738;19.472;2023-07-13T02:10:12;24.20;72.10
18412;DHT22;27097;51.738;19.472;2023-07-13T02:12:41;24.20;71.70
18412;DHT22;27097;51.738;19.472;2023-07-13T02:15:09;24.20;71.50
18412;DHT22;27097;51.738;19.472;2023-07-13T02:17:36;24.10;71.60
18412;DHT22;27097;51.738;19.472;2023-07-13T02:20:05;24.00;71.90
18412;DHT22;27097;51.738;19.472;2023-07-13T02:22:32;24.00;72.10
18412;DHT22;27097;51.738;19.472;2023-07-13T02:24:59;24.00;72.00
18412;DHT22;27097;51.738;19.472;2023-07-13T02:27:25;24.10;72.00
18412;DHT22;27097;51.738;19.472;2023-07-13T02:29:54;24.10;72.00
18412;DHT22;27097;51.738;19.472;2023-07-13T02:32:21;24.20;71.80
18412;DHT22;27097;51.738;19.472;2023-07-13T02:34:50;24.20;71.30
18412;DHT22;27097;51.738;19.472;2023-07-13T02:37:17;24.20;71.40
18412;DHT22;27097;51.738;19.472;2023-07-13T02:39:44;24.30;71.10
18412;DHT22;27097;51.738;19.472;2023-07-13T02:42:11;24.30;70.70
18412;DHT22;27097;51.738;19.472;2023-07-13T02:44:38;24.30;70.50
18412;DHT22;27097;51.738;19.472;2023-07-13T02:47:06;24.20;71.10
18412;DHT22;27097;51.738;19.472;2023-07-13T02:49:33;24.30;71.00
18412;DHT22;27097;51.738;19.472;2023-07-13T02:52:00;24.30;70.90
18412;DHT22;27097;51.738;19.472;2023-07-13T02:54:27;24.30;70.50
18412;DHT22;27097;51.738;19.472;2023-07-13T02:56:54;24.30;70.50
18412;DHT22;27097;51.738;19.472;2023-07-13T02:59:21;24.30;70.30
18412;DHT22;27097;51.738;19.472;2023-07-13T03:01:48;24.30;70.50
18412;DHT22;27097;51.738;19.472;2023-07-13T03:04:16;24.30;70.30
18412;DHT22;27097;51.738;19.472;2023-07-13T03:06:45;24.30;70.40
18412;DHT22;27097;51.738;19.472;2023-07-13T03:09:12;24.30;71.00
18412;DHT22;27097;51.738;19.472;2023-07-13T03:11:40;24.30;70.70
18412;DHT22;27097;51.738;19.472;2023-07-13T03:14:08;24.30;71.40
18412;DHT22;27097;51.738;19.472;2023-07-13T03:16:35;24.30;70.90
18412;DHT22;27097;51.738;19.472;2023-07-13T03:19:02;24.20;70.90
18412;DHT22;27097;51.738;19.472;2023-07-13T03:21:30;24.30;71.00
18412;DHT22;27097;51.738;19.472;2023-07-13T03:23:57;24.20;70.90
18412;DHT22;27097;51.738;19.472;2023-07-13T03:26:23;24.30;71.00
18412;DHT22;27097;51.738;19.472;2023-07-13T03:28:50;24.20;70.80
18412;DHT22;27097;51.738;19.472;2023-07-13T03:31:19;24.20;70.90
18412;DHT22;27097;51.738;19.472;2023-07-13T03:33:46;24.20;70.70
18412;DHT22;27097;51.738;19.472;2023-07-13T03:36:18;24.20;71.00
18412;DHT22;27097;51.738;19.472;2023-07-13T03:38:48;24.20;71.30
18412;DHT22;27097;51.738;19.472;2023-07-13T03:41:15;24.20;71.00
18412;DHT22;27097;51.738;19.472;2023-07-13T03:43:42;24.20;71.00
18412;DHT22;27097;51.738;19.472;2023-07-13T03:46:09;24.20;71.30
18412;DHT22;27097;51.738;19.472;2023-07-13T03:48:36;24.20;71.00
18412;DHT22;27097;51.738;19.472;2023-07-13T03:51:05;24.10;71.20
18412;DHT22;27097;51.738;19.472;2023-07-13T03:53:32;24.10;71.10
18412;DHT22;27097;51.738;19.472;2023-07-13T03:56:00;24.10;70.90
18412;DHT22;27097;51.738;19.472;2023-07-13T03:58:30;24.10;71.00
18412;DHT22;27097;51.738;19.472;2023-07-13T04:00:57;24.00;70.90
18412;DHT22;27097;51.738;19.472;2023-07-13T04:03:25;24.00;71.20
18412;DHT22;27097;51.738;19.472;2023-07-13T04:05:54;24.00;71.40
18412;DHT22;27097;51.738;19.472;2023-07-13T04:08:26;24.00;71.20
18412;DHT22;27097;51.738;19.472;2023-07-13T04:10:53;24.00;71.10
18412;DHT22;27097;51.738;19.472;2023-07-13T04:13:22;24.10;71.20
18412;DHT22;27097;51.738;19.472;2023-07-13T04:15:49;24.10;71.20
18412;DHT22;27097;51.738;19.472;2023-07-13T04:18:16;24.20;70.40
18412;DHT22;27097;51.738;19.472;2023-07-13T04:20:45;24.10;70.70
18412;DHT22;27097;51.738;19.472;2023-07-13T04:23:12;24.20;70.40
18412;DHT22;27097;51.738;19.472;2023-07-13T04:25:38;24.20;70.20
18412;DHT22;27097;51.738;19.472;2023-07-13T04:28:06;24.20;70.10
18412;DHT22;27097;51.738;19.472;2023-07-13T04:30:34;24.20;70.60
18412;DHT22;27097;51.738;19.472;2023-07-13T04:33:01;24.20;70.20
18412;DHT22;27097;51.738;19.472;2023-07-13T04:35:30;24.10;70.20
18412;DHT22;27097;51.738;19.472;2023-07-13T04:37:57;24.20;70.40
18412;DHT22;27097;51.738;19.472;2023-07-13T04:40:23;24.20;70.20
18412;DHT22;27097;51.738;19.472;2023-07-13T04:42:50;24.20;70.00
18412;DHT22;27097;51.738;19.472;2023-07-13T04:45:17;24.20;70.10
18412;DHT22;27097;51.738;19.472;2023-07-13T04:47:46;24.20;69.70
18412;DHT22;27097;51.738;19.472;2023-07-13T04:50:13;24.20;70.00
18412;DHT22;27097;51.738;19.472;2023-07-13T04:52:45;24.10;69.70
18412;DHT22;27097;51.738;19.472;2023-07-13T04:55:12;24.10;70.10
18412;DHT22;27097;51.738;19.472;2023-07-13T04:57:39;24.10;70.30
18412;DHT22;27097;51.738;19.472;2023-07-13T05:00:07;24.10;70.10
18412;DHT22;27097;51.738;19.472;2023-07-13T05:02:34;24.10;70.30
18412;DHT22;27097;51.738;19.472;2023-07-13T05:05:03;24.20;70.20
18412;DHT22;27097;51.738;19.472;2023-07-13T05:07:30;24.20;70.50
18412;DHT22;27097;51.738;19.472;2023-07-13T05:09:58;24.30;70.20
18412;DHT22;27097;51.738;19.472;2023-07-13T05:12:25;24.30;70.30
18412;DHT22;27097;51.738;19.472;2023-07-13T05:14:52;24.40;70.20
18412;DHT22;27097;51.738;19.472;2023-07-13T05:17:18;24.50;69.90
18412;DHT22;27097;51.738;19.472;2023-07-13T05:19:45;24.50;70.00
18412;DHT22;27097;51.738;19.472;2023-07-13T05:22:14;24.60;70.00
18412;DHT22;27097;51.738;19.472;2023-07-13T05:24:41;24.70;69.80
18412;DHT22;27097;51.738;19.472;2023-07-13T05:27:07;24.80;69.60
18412;DHT22;27097;51.738;19.472;2023-07-13T05:29:34;24.90;69.10
18412;DHT22;27097;51.738;19.472;2023-07-13T05:32:01;25.00;68.70
18412;DHT22;27097;51.738;19.472;2023-07-13T05:34:28;25.10;68.70
18412;DHT22;27097;51.738;19.472;2023-07-13T05:36:55;25.20;68.50
18412;DHT22;27097;51.738;19.472;2023-07-13T05:39:24;25.20;68.40
18412;DHT22;27097;51.738;19.472;2023-07-13T05:41:51;25.30;67.90
18412;DHT22;27097;51.738;19.472;2023-07-13T05:44:18;25.30;67.60
18412;DHT22;27097;51.738;19.472;2023-07-13T05:46:45;25.30;67.70
18412;DHT22;27097;51.738;19.472;2023-07-13T05:49:12;25.30;67.90
18412;DHT22;27097;51.738;19.472;2023-07-13T05:51:39;25.40;67.90
18412;DHT22;27097;51.738;19.472;2023-07-13T05:54:06;25.40;67.80
18412;DHT22;27097;51.738;19.472;2023-07-13T05:56:34;25.50;67.60
18412;DHT22;27097;51.738;19.472;2023-07-13T05:59:01;25.60;67.80
18412;DHT22;27097;51.738;19.472;2023-07-13T06:01:30;25.60;67.30
18412;DHT22;27097;51.738;19.472;2023-07-13T06:03:57;25.70;67.00
18412;DHT22;27097;51.738;19.472;2023-07-13T06:06:24;25.70;67.00
18412;DHT22;27097;51.738;19.472;2023-07-13T06:08:50;25.80;66.70
18412;DHT22;27097;51.738;19.472;2023-07-13T06:11:21;25.80;66.90
18412;DHT22;27097;51.738;19.472;2023-07-13T06:13:50;25.90;66.80
18412;DHT22;27097;51.738;19.472;2023-07-13T06:16:17;25.90;66.70
18412;DHT22;27097;51.738;19.472;2023-07-13T06:18:44;25.90;67.10
18412;DHT22;27097;51.738;19.472;2023-07-13T06:21:13;25.90;66.70
18412;DHT22;27097;51.738;19.472;2023-07-13T06:23:41;25.90;66.70
18412;DHT22;27097;51.738;19.472;2023-07-13T06:26:09;25.90;66.40
18412;DHT22;27097;51.738;19.472;2023-07-13T06:28:37;25.80;66.40
18412;DHT22;27097;51.738;19.472;2023-07-13T06:31:07;25.80;66.80
18412;DHT22;27097;51.738;19.472;2023-07-13T06:33:35;25.90;67.60
18412;DHT22;27097;51.738;19.472;2023-07-13T06:36:06;25.90;67.40
18412;DHT22;27097;51.738;19.472;2023-07-13T06:38:33;25.90;67.50
18412;DHT22;27097;51.738;19.472;2023-07-13T06:41:04;25.90;67.70
18412;DHT22;27097;51.738;19.472;2023-07-13T06:43:31;25.90;67.40
18412;DHT22;27097;51.738;19.472;2023-07-13T06:45:58;26.00;67.90
18412;DHT22;27097;51.738;19.472;2023-07-13T06:48:26;25.90;67.80
18412;DHT22;27097;51.738;19.472;2023-07-13T06:50:53;26.00;67.60
18412;DHT22;27097;51.738;19.472;2023-07-13T06:53:21;26.00;67.40
18412;DHT22;27097;51.738;19.472;2023-07-13T06:55:48;26.00;67.60
18412;DHT22;27097;51.738;19.472;2023-07-13T06:58:16;26.10;67.70
18412;DHT22;27097;51.738;19.472;2023-07-13T07:00:43;26.10;67.00
18412;DHT22;27097;51.738;19.472;2023-07-13T07:03:10;26.10;66.80
18412;DHT22;27097;51.738;19.472;2023-07-13T07:05:38;26.20;66.50
18412;DHT22;27097;51.738;19.472;2023-07-13T07:08:05;26.20;66.50
18412;DHT22;27097;51.738;19.472;2023-07-13T07:10:33;26.20;67.30
18412;DHT22;27097;51.738;19.472;2023-07-13T07:13:00;26.20;67.80
18412;DHT22;27097;51.738;19.472;2023-07-13T07:15:27;26.20;67.00
18412;DHT22;27097;51.738;19.472;2023-07-13T07:17:57;26.20;67.80
18412;DHT22;27097;51.738;19.472;2023-07-13T07:20:24;26.20;69.30
18412;DHT22;27097;51.738;19.472;2023-07-13T07:22:53;26.20;68.90
18412;DHT22;27097;51.738;19.472;2023-07-13T07:25:25;26.20;69.40
18412;DHT22;27097;51.738;19.472;2023-07-13T07:27:52;26.10;69.60
18412;DHT22;27097;51.738;19.472;2023-07-13T07:30:19;26.10;69.40
18412;DHT22;27097;51.738;19.472;2023-07-13T07:32:46;26.10;69.50
18412;DHT22;27097;51.738;19.472;2023-07-13T07:35:20;26.10;69.80
18412;DHT22;27097;51.738;19.472;2023-07-13T07:37:50;26.10;69.90
18412;DHT22;27097;51.738;19.472;2023-07-13T07:40:19;26.10;69.90
18412;DHT22;27097;51.738;19.472;2023-07-13T07:42:45;26.10;70.00
18412;DHT22;27097;51.738;19.472;2023-07-13T07:45:12;26.10;70.00
18412;DHT22;27097;51.738;19.472;2023-07-13T07:47:39;26.10;70.10
18412;DHT22;27097;51.738;19.472;2023-07-13T07:50:07;26.10;70.10
18412;DHT22;27097;51.738;19.472;2023-07-13T07:52:34;26.10;70.10
18412;DHT22;27097;51.738;19.472;2023-07-13T07:55:01;26.10;70.10
18412;DHT22;27097;51.738;19.472;2023-07-13T07:57:29;26.10;70.40
18412;DHT22;27097;51.738;19.472;2023-07-13T07:59:56;26.10;70.70
18412;DHT22;27097;51.738;19.472;2023-07-13T08:02:23;26.10;70.20
18412;DHT22;27097;51.738;19.472;2023-07-13T08:04:51;26.10;69.80
18412;DHT22;27097;51.738;19.472;2023-07-13T08:07:18;26.10;69.10
18412;DHT22;27097;51.738;19.472;2023-07-13T08:09:45;26.10;68.80
18412;DHT22;27097;51.738;19.472;2023-07-13T08:12:12;26.10;68.80
18412;DHT22;27097;51.738;19.472;2023-07-13T08:14:40;26.10;68.50
18412;DHT22;27097;51.738;19.472;2023-07-13T08:17:07;26.10;68.40
18412;DHT22;27097;51.738;19.472;2023-07-13T08:19:34;26.10;68.30
18412;DHT22;27097;51.738;19.472;2023-07-13T08:22:00;26.10;68.00
18412;DHT22;27097;51.738;19.472;2023-07-13T08:24:27;26.10;68.00
18412;DHT22;27097;51.738;19.472;2023-07-13T08:26:54;26.10;67.60
18412;DHT22;27097;51.738;19.472;2023-07-13T08:29:21;26.10;67.10
18412;DHT22;27097;51.738;19.472;2023-07-13T08:31:49;26.10;67.00
18412;DHT22;27097;51.738;19.472;2023-07-13T08:34:16;26.20;66.40
18412;DHT22;27097;51.738;19.472;2023-07-13T08:36:43;26.20;66.40
18412;DHT22;27097;51.738;19.472;2023-07-13T08:39:10;26.20;66.10
18412;DHT22;27097;51.738;19.472;2023-07-13T08:41:37;26.20;65.80
18412;DHT22;27097;51.738;19.472;2023-07-13T08:44:11;26.20;65.60
18412;DHT22;27097;51.738;19.472;2023-07-13T08:46:43;26.30;65.40
18412;DHT22;27097;51.738;19.472;2023-07-13T08:49:16;26.30;65.40
18412;DHT22;27097;51.738;19.472;2023-07-13T08:51:46;26.30;65.50
18412;DHT22;27097;51.738;19.472;2023-07-13T08:54:22;26.30;64.80
18412;DHT22;27097;51.738;19.472;2023-07-13T08:56:50;26.30;64.60
18412;DHT22;27097;51.738;19.472;2023-07-13T08:59:20;26.30;64.90
18412;DHT22;27097;51.738;19.472;2023-07-13T09:01:59;26.30;64.30
18412;DHT22;27097;51.738;19.472;2023-07-13T09:04:33;26.30;64.10
18412;DHT22;27097;51.738;19.472;2023-07-13T09:07:11;26.30;63.90
18412;DHT22;27097;51.738;19.472;2023-07-13T09:09:54;26.20;63.90
18412;DHT22;27097;51.738;19.472;2023-07-13T09:12:31;26.20;63.70
18412;DHT22;27097;51.738;19.472;2023-07-13T09:15:04;26.20;63.90
18412;DHT22;27097;51.738;19.472;2023-07-13T09:17:35;26.30;63.80
18412;DHT22;27097;51.738;19.472;2023-07-13T09:20:10;26.20;63.90
18412;DHT22;27097;51.738;19.472;2023-07-13T09:22:41;26.30;63.90
18412;DHT22;27097;51.738;19.472;2023-07-13T09:25:21;26.30;63.70
18412;DHT22;27097;51.738;19.472;2023-07-13T09:27:54;26.30;63.40
18412;DHT22;27097;51.738;19.472;2023-07-13T09:30:28;26.30;63.40
18412;DHT22;27097;51.738;19.472;2023-07-13T09:32:57;26.40;63.10
18412;DHT22;27097;51.738;19.472;2023-07-13T09:35:29;26.40;63.00
18412;DHT22;27097;51.738;19.472;2023-07-13T09:38:04;26.40;62.90
18412;DHT22;27097;51.738;19.472;2023-07-13T09:40:43;26.40;62.60
18412;DHT22;27097;51.738;19.472;2023-07-13T09:43:13;26.50;62.60
18412;DHT22;27097;51.738;19.472;2023-07-13T09:45:40;26.40;62.00
18412;DHT22;27097;51.738;19.472;2023-07-13T09:48:12;26.50;62.30
18412;DHT22;27097;51.738;19.472;2023-07-13T09:50:44;26.40;62.90
18412;DHT22;27097;51.738;19.472;2023-07-13T09:53:12;26.40;63.10
18412;DHT22;27097;51.738;19.472;2023-07-13T09:55:41;26.40;63.20
18412;DHT22;27097;51.738;19.472;2023-07-13T09:58:11;26.30;63.00
18412;DHT22;27097;51.738;19.472;2023-07-13T10:00:39;26.40;63.00
18412;DHT22;27097;51.738;19.472;2023-07-13T10:03:17;26.40;62.60
18412;DHT22;27097;51.738;19.472;2023-07-13T10:05:47;26.40;62.60
18412;DHT22;27097;51.738;19.472;2023-07-13T10:08:24;26.40;62.70
18412;DHT22;27097;51.738;19.472;2023-07-13T10:10:57;26.40;62.60
18412;DHT22;27097;51.738;19.472;2023-07-13T10:13:27;26.40;62.50
18412;DHT22;27097;51.738;19.472;2023-07-13T10:15:55;26.30;62.70
18412;DHT22;27097;51.738;19.472;2023-07-13T10:18:24;26.40;62.60
18412;DHT22;27097;51.738;19.472;2023-07-13T10:21:00;26.40;62.30
18412;DHT22;27097;51.738;19.472;2023-07-13T10:23:34;26.40;62.60
18412;DHT22;27097;51.738;19.472;2023-07-13T10:26:02;26.40;62.70
18412;DHT22;27097;51.738;19.472;2023-07-13T10:28:32;26.50;62.10
18412;DHT22;27097;51.738;19.472;2023-07-13T10:31:02;26.50;62.30
18412;DHT22;27097;51.738;19.472;2023-07-13T10:33:31;26.50;62.50
18412;DHT22;27097;51.738;19.472;2023-07-13T10:36:07;26.40;62.60
18412;DHT22;27097;51.738;19.472;2023-07-13T10:38:38;26.50;62.70
18412;DHT22;27097;51.738;19.472;2023-07-13T10:41:10;26.50;62.60
18412;DHT22;27097;51.738;19.472;2023-07-13T10:43:41;26.50;62.40
18412;DHT22;27097;51.738;19.472;2023-07-13T10:46:12;26.50;62.40
18412;DHT22;27097;51.738;19.472;2023-07-13T10:48:42;26.50;62.10
18412;DHT22;27097;51.738;19.472;2023-07-13T10:51:16;26.50;62.40
18412;DHT22;27097;51.738;19.472;2023-07-13T10:53:47;26.50;62.30
18412;DHT22;27097;51.738;19.472;2023-07-13T10:56:28;26.50;62.30
18412;DHT22;27097;51.738;19.472;2023-07-13T10:59:05;26.50;62.30
18412;DHT22;27097;51.738;19.472;2023-07-13T11:01:40;26.50;61.80
18412;DHT22;27097;51.738;19.472;2023-07-13T11:04:12;26.50;61.90
18412;DHT22;27097;51.738;19.472;2023-07-13T11:06:42;26.50;61.90
18412;DHT22;27097;51.738;19.472;2023-07-13T11:09:32;26.50;62.10
18412;DHT22;27097;51.738;19.472;2023-07-13T11:12:00;26.50;62.40
18412;DHT22;27097;51.738;19.472;2023-07-13T11:14:30;26.50;62.60
18412;DHT22;27097;51.738;19.472;2023-07-13T11:16:58;26.50;62.40
18412;DHT22;27097;51.738;19.472;2023-07-13T11:19:39;26.50;62.70
18412;DHT22;27097;51.738;19.472;2023-07-13T11:22:16;26.50;62.30
18412;DHT22;27097;51.738;19.472;2023-07-13T11:24:59;26.50;62.60
18412;DHT22;27097;51.738;19.472;2023-07-13T11:27:37;26.50;62.40
18412;DHT22;27097;51.738;19.472;2023-07-13T11:33:02;26.50;62.30
18412;DHT22;27097;51.738;19.472;2023-07-13T11:35:35;26.50;62.40
18412;DHT22;27097;51.738;19.472;2023-07-13T11:38:13;26.50;62.80
18412;DHT22;27097;51.738;19.472;2023-07-13T11:40:42;26.50;62.70
18412;DHT22;27097;51.738;19.472;2023-07-13T11:43:13;26.50;62.70
18412;DHT22;27097;51.738;19.472;2023-07-13T11:45:41;26.50;62.70
18412;DHT22;27097;51.738;19.472;2023-07-13T11:48:19;26.50;62.50
18412;DHT22;27097;51.738;19.472;2023-07-13T11:50:54;26.50;62.50
18412;DHT22;27097;51.738;19.472;2023-07-13T11:53:26;26.50;62.70
18412;DHT22;27097;51.738;19.472;2023-07-13T11:55:53;26.50;62.80
18412;DHT22;27097;51.738;19.472;2023-07-13T11:58:24;26.50;62.80
18412;DHT22;27097;51.738;19.472;2023-07-13T12:00:52;26.50;63.00
18412;DHT22;27097;51.738;19.472;2023-07-13T12:03:21;26.50;63.10
18412;DHT22;27097;51.738;19.472;2023-07-13T12:05:57;26.50;63.10
18412;DHT22;27097;51.738;19.472;2023-07-13T12:08:26;26.50;62.90
18412;DHT22;27097;51.738;19.472;2023-07-13T12:10:59;26.60;63.10
18412;DHT22;27097;51.738;19.472;2023-07-13T12:13:27;26.60;63.20
18412;DHT22;27097;51.738;19.472;2023-07-13T12:15:55;26.60;63.20
18412;DHT22;27097;51.738;19.472;2023-07-13T12:18:28;26.60;63.20
18412;DHT22;27097;51.738;19.472;2023-07-13T12:20:58;26.60;62.70
18412;DHT22;27097;51.738;19.472;2023-07-13T12:23:32;26.60;62.40
18412;DHT22;27097;51.738;19.472;2023-07-13T12:26:02;26.60;62.50
18412;DHT22;27097;51.738;19.472;2023-07-13T12:28:33;26.60;62.20
18412;DHT22;27097;51.738;19.472;2023-07-13T12:31:01;26.60;62.60
18412;DHT22;27097;51.738;19.472;2023-07-13T12:33:29;26.60;62.60
18412;DHT22;27097;51.738;19.472;2023-07-13T12:35:59;26.60;62.00
18412;DHT22;27097;51.738;19.472;2023-07-13T12:38:27;26.60;62.50
18412;DHT22;27097;51.738;19.472;2023-07-13T12:40:56;26.60;62.10
18412;DHT22;27097;51.738;19.472;2023-07-13T12:43:24;26.60;62.20
18412;DHT22;27097;51.738;19.472;2023-07-13T12:45:57;26.60;61.70
18412;DHT22;27097;51.738;19.472;2023-07-13T12:48:25;26.50;61.90
18412;DHT22;27097;51.738;19.472;2023-07-13T12:50:54;26.60;61.70
18412;DHT22;27097;51.738;19.472;2023-07-13T12:53:24;26.60;61.70
18412;DHT22;27097;51.738;19.472;2023-07-13T12:55:58;26.50;61.20
18412;DHT22;27097;51.738;19.472;2023-07-13T12:58:27;26.60;61.60
18412;DHT22;27097;51.738;19.472;2023-07-13T13:00:56;26.60;61.40
18412;DHT22;27097;51.738;19.472;2023-07-13T13:03:27;26.60;61.20
18412;DHT22;27097;51.738;19.472;2023-07-13T13:05:58;26.60;61.50
18412;DHT22;27097;51.738;19.472;2023-07-13T13:08:25;26.60;61.50
18412;DHT22;27097;51.738;19.472;2023-07-13T13:10:52;26.60;61.60
18412;DHT22;27097;51.738;19.472;2023-07-13T13:13:21;26.60;61.30
18412;DHT22;27097;51.738;19.472;2023-07-13T13:15:48;26.60;61.40
18412;DHT22;27097;51.738;19.472;2023-07-13T13:18:18;26.60;61.10
18412;DHT22;27097;51.738;19.472;2023-07-13T13:20:46;26.60;61.30
18412;DHT22;27097;51.738;19.472;2023-07-13T13:23:13;26.60;61.40
18412;DHT22;27097;51.738;19.472;2023-07-13T13:25:43;26.60;61.70
18412;DHT22;27097;51.738;19.472;2023-07-13T13:28:14;26.60;61.70
18412;DHT22;27097;51.738;19.472;2023-07-13T13:30:43;26.60;61.60
18412;DHT22;27097;51.738;19.472;2023-07-13T13:33:11;26.60;61.40
18412;DHT22;27097;51.738;19.472;2023-07-13T13:35:39;26.60;61.60
18412;DHT22;27097;51.738;19.472;2023-07-13T13:38:11;26.60;61.60
18412;DHT22;27097;51.738;19.472;2023-07-13T13:40:39;26.50;61.60
18412;DHT22;27097;51.738;19.472;2023-07-13T13:43:14;26.60;61.70
18412;DHT22;27097;51.738;19.472;2023-07-13T13:45:43;26.50;62.30
18412;DHT22;27097;51.738;19.472;2023-07-13T13:48:15;26.60;61.80
18412;DHT22;27097;51.738;19.472;2023-07-13T13:50:42;26.60;61.80
18412;DHT22;27097;51.738;19.472;2023-07-13T13:53:11;26.60;61.80
18412;DHT22;27097;51.738;19.472;2023-07-13T13:55:39;26.60;61.80
18412;DHT22;27097;51.738;19.472;2023-07-13T13:58:07;26.60;61.80
18412;DHT22;27097;51.738;19.472;2023-07-13T14:00:34;26.60;61.60
18412;DHT22;27097;51.738;19.472;2023-07-13T14:03:03;26.60;61.30
18412;DHT22;27097;51.738;19.472;2023-07-13T14:05:32;26.60;61.80
18412;DHT22;27097;51.738;19.472;2023-07-13T14:07:59;26.60;61.70
18412;DHT22;27097;51.738;19.472;2023-07-13T14:10:26;26.60;61.40
18412;DHT22;27097;51.738;19.472;2023-07-13T14:12:55;26.60;61.90
18412;DHT22;27097;51.738;19.472;2023-07-13T14:15:25;26.60;61.60
18412;DHT22;27097;51.738;19.472;2023-07-13T14:17:52;26.60;61.20
18412;DHT22;27097;51.738;19.472;2023-07-13T14:20:22;26.60;61.40
18412;DHT22;27097;51.738;19.472;2023-07-13T14:22:50;26.60;61.20
18412;DHT22;27097;51.738;19.472;2023-07-13T14:25:18;26.60;60.90
18412;DHT22;27097;51.738;19.472;2023-07-13T14:27:48;26.70;61.00
18412;DHT22;27097;51.738;19.472;2023-07-13T14:30:18;26.70;61.00
18412;DHT22;27097;51.738;19.472;2023-07-13T14:32:46;26.70;60.80
18412;DHT22;27097;51.738;19.472;2023-07-13T14:35:15;26.70;60.80
18412;DHT22;27097;51.738;19.472;2023-07-13T14:37:44;26.70;61.10
18412;DHT22;27097;51.738;19.472;2023-07-13T14:40:13;26.70;61.00
18412;DHT22;27097;51.738;19.472;2023-07-13T14:42:40;26.70;61.10
18412;DHT22;27097;51.738;19.472;2023-07-13T14:45:13;26.70;61.00
18412;DHT22;27097;51.738;19.472;2023-07-13T14:47:40;26.70;61.10
18412;DHT22;27097;51.738;19.472;2023-07-13T14:50:13;26.70;61.10
18412;DHT22;27097;51.738;19.472;2023-07-13T14:52:40;26.70;61.00
18412;DHT22;27097;51.738;19.472;2023-07-13T14:55:10;26.70;61.30
18412;DHT22;27097;51.738;19.472;2023-07-13T14:57:37;26.70;60.90
18412;DHT22;27097;51.738;19.472;2023-07-13T15:00:09;26.70;60.70
18412;DHT22;27097;51.738;19.472;2023-07-13T15:02:38;26.70;60.60
18412;DHT22;27097;51.738;19.472;2023-07-13T15:05:13;26.80;60.20
18412;DHT22;27097;51.738;19.472;2023-07-13T15:07:41;26.80;60.00
18412;DHT22;27097;51.738;19.472;2023-07-13T15:10:15;26.80;59.90
18412;DHT22;27097;51.738;19.472;2023-07-13T15:12:42;26.80;59.90
18412;DHT22;27097;51.738;19.472;2023-07-13T15:15:09;26.80;59.70
18412;DHT22;27097;51.738;19.472;2023-07-13T15:17:39;26.80;59.60
18412;DHT22;27097;51.738;19.472;2023-07-13T15:20:15;26.80;59.60
18412;DHT22;27097;51.738;19.472;2023-07-13T15:22:43;26.80;59.50
18412;DHT22;27097;51.738;19.472;2023-07-13T15:25:17;26.80;59.40
18412;DHT22;27097;51.738;19.472;2023-07-13T15:27:44;26.80;59.00
18412;DHT22;27097;51.738;19.472;2023-07-13T15:30:13;26.80;59.00